Time;durP1;ratioP1;P1;durP2;ratioP2;P2;SDS_P1;SDS_P2;PMS_P1;PMS_P2;Temp;Humidity;BMP_temperature;BMP_pressure;BME280_temperature;BME280_humidity;BME280_pressure;Samples;Min_cycle;Max_cycle;Signal;HPM_P1;HPM_P2
2022/02/11 05:56:09;;;;;;;28.32;16.67;;;;;;;6.08;84.05;99168.53;4466880;74;183443;-90
2022/02/11 06:02:11;;;;;;;25.15;15.53;;;;;;;6.05;84.05;99169.22;4222855;83;21066;-90
2022/02/11 06:08:13;;;;;;;34.73;17.37;;;;;;;6.04;84.08;99166.28;4224413;83;21100;-90
2022/02/11 06:14:18;;;;;;;26.23;16.80;;;;;;;6.02;83.88;99168.53;4168438;85;21077;-89
2022/02/11 06:20:27;;;;;;;30.37;17.80;;;;;;;6.05;83.84;99169.22;4247021;83;21576;-90
2022/02/11 06:26:23;;;;;;;31.45;17.25;;;;;;;6.04;83.93;99179.88;4246544;83;21120;-91
2022/02/11 06:32:25;;;;;;;29.80;16.67;;;;;;;6.01;84.22;99179.75;4258887;83;21080;-90
2022/02/11 06:38:28;;;;;;;40.03;19.62;;;;;;;5.95;84.76;99171.02;4150421;83;21075;-91
2022/02/11 06:44:30;;;;;;;27.32;16.85;;;;;;;5.91;84.89;99168.77;4225217;83;21739;-91
2022/02/11 06:50:32;;;;;;;36.00;19.37;;;;;;;5.86;84.77;99169.54;4120069;85;21057;-90
2022/02/11 06:56:34;;;;;;;34.55;20.15;;;;;;;5.82;85.01;99171.36;4256564;83;21034;-90
2022/02/11 07:02:38;;;;;;;35.17;20.20;;;;;;;5.83;85.40;99173.74;4243475;83;21568;-89
2022/02/11 07:08:40;;;;;;;41.45;21.87;;;;;;;5.76;85.58;99172.11;4258454;83;21557;-90
2022/02/11 07:14:41;;;;;;;76.50;29.87;;;;;;;5.79;85.92;99180.16;4170573;85;21589;-91
2022/02/11 07:20:44;;;;;;;66.12;28.17;;;;;;;5.74;86.02;99168.96;4298533;81;223179;-90
2022/02/11 07:26:45;;;;;;;44.58;23.73;;;;;;;5.74;86.13;99167.60;4300189;81;21077;-90
2022/02/11 07:32:48;;;;;;;44.93;23.45;;;;;;;5.74;86.33;99157.30;4232668;83;21038;-91
2022/02/11 07:38:53;;;;;;;40.08;22.80;;;;;;;5.75;86.34;99150.16;4205584;80;183308;-91
2022/02/11 07:44:57;;;;;;;44.73;23.70;;;;;;;5.79;86.78;99148.37;4331982;81;21022;-91
2022/02/11 07:51:00;;;;;;;133.03;61.53;;;;;;;5.83;87.01;99145.77;4319114;80;21076;-91
2022/02/11 07:57:02;;;;;;;195.28;85.62;;;;;;;5.88;86.95;99140.12;4334502;80;21021;-90
2022/02/11 08:03:03;;;;;;;58.15;31.37;;;;;;;5.99;87.07;99140.69;4318802;81;21081;-91
2022/02/11 08:09:05;;;;;;;55.92;27.98;;;;;;;6.08;87.06;99129.68;4322388;81;21560;-91
2022/02/11 08:15:08;;;;;;;46.30;24.02;;;;;;;6.14;86.86;99133.75;4339124;81;21534;-91
2022/02/11 08:21:09;;;;;;;106.20;30.75;;;;;;;6.22;86.87;99126.84;4334692;80;21476;-89
2022/02/11 08:27:13;;;;;;;41.35;20.25;;;;;;;6.31;87.24;99129.44;4337230;81;21109;-88
2022/02/11 08:33:24;;;;;;;25.27;13.62;;;;;;;6.36;86.72;99126.45;4342943;81;21667;-90
2022/02/11 08:39:26;;;;;;;26.93;15.78;;;;;;;6.41;86.29;99120.78;4314551;81;21030;-91
2022/02/11 08:45:28;;;;;;;22.40;11.97;;;;;;;6.44;86.19;99115.24;4323519;80;21041;-91
2022/02/11 08:51:30;;;;;;;21.33;12.13;;;;;;;6.48;85.96;99105.25;4335831;81;21068;-90
2022/02/11 08:57:32;;;;;;;22.13;11.93;;;;;;;6.53;85.61;99113.17;4331239;81;21009;-91
2022/02/11 09:03:39;;;;;;;23.85;12.93;;;;;;;6.59;85.34;99111.78;4335205;80;21760;-91
2022/02/11 09:09:40;;;;;;;22.02;11.57;;;;;;;6.65;85.68;99112.55;4337345;80;21644;-90
2022/02/11 09:15:43;;;;;;;24.47;13.35;;;;;;;6.67;85.37;99117.65;4339256;81;21090;-92
2022/02/11 09:21:45;;;;;;;26.02;14.40;;;;;;;6.67;85.84;99117.65;4330459;81;21046;-91
2022/02/11 09:27:46;;;;;;;24.85;14.55;;;;;;;6.65;85.23;99113.91;4337652;81;21064;-91
2022/02/11 09:33:47;;;;;;;24.67;13.72;;;;;;;6.71;85.33;99105.73;4344733;81;21061;-91
2022/02/11 09:39:49;;;;;;;31.05;16.20;;;;;;;6.81;85.81;99104.44;4335450;80;21057;-90
2022/02/11 09:45:52;;;;;;;27.87;15.38;;;;;;;6.91;85.02;99109.36;4315195;81;21406;-91
2022/02/11 09:51:54;;;;;;;26.80;15.08;;;;;;;7.03;85.32;99106.60;4331882;81;21062;-90
2022/02/11 09:57:56;;;;;;;25.85;15.53;;;;;;;7.07;84.23;99106.11;4322552;81;21021;-90
2022/02/11 10:04:22;;;;;;;23.67;14.58;;;;;;;7.08;84.27;99111.80;4329996;81;21060;-91
2022/02/11 10:16:59;;;;;;;28.05;15.28;;;;;;;7.23;83.95;99096.04;4328495;81;21038;-91
2022/02/11 10:23:26;;;;;;;24.55;14.35;;;;;;;7.28;83.72;99103.36;4315279;81;21895;-90
2022/02/11 10:29:42;;;;;;;17.13;9.30;;;;;;;7.33;83.70;99086.77;4335694;81;21231;-90
2022/02/11 10:35:44;;;;;;;13.60;9.13;;;;;;;7.37;83.14;99079.50;4342813;81;21002;-91
2022/02/11 10:41:54;;;;;;;16.80;8.55;;;;;;;7.40;82.98;99080.16;4327584;81;21049;-91
2022/02/11 10:48:16;;;;;;;19.77;9.40;;;;;;;7.34;82.63;99066.59;4331042;81;21275;-90
2022/02/11 10:54:33;;;;;;;16.60;8.63;;;;;;;7.42;81.99;99066.95;4332480;81;21023;-91
2022/02/11 11:00:33;;;;;;;13.72;7.33;;;;;;;7.41;81.59;99072.75;4327433;81;21010;-91
2022/02/11 11:06:37;;;;;;;21.35;9.00;;;;;;;7.37;80.35;99063.72;4333012;80;21281;-92
2022/02/11 11:12:54;;;;;;;14.60;7.92;;;;;;;7.33;79.24;99062.27;4300799;81;21113;-91
2022/02/11 11:18:53;;;;;;;17.23;9.18;;;;;;;7.34;79.57;99077.48;4297669;81;21081;-90
2022/02/11 11:25:04;;;;;;;12.88;7.85;;;;;;;7.34;79.64;99069.31;4308540;81;21012;-90
2022/02/11 11:31:29;;;;;;;16.15;7.47;;;;;;;7.44;78.91;99071.48;4300306;81;21119;-90
2022/02/11 11:37:33;;;;;;;15.48;7.62;;;;;;;7.48;78.93;99064.77;4309126;81;21347;-90
2022/02/11 11:43:45;;;;;;;14.35;6.92;;;;;;;7.50;76.33;99056.45;4293504;81;21081;-89
2022/02/11 11:49:49;;;;;;;12.93;6.87;;;;;;;7.67;77.20;99046.55;4306211;81;21028;-91
2022/02/11 11:55:51;;;;;;;12.23;6.05;;;;;;;7.90;77.39;99040.67;4263813;82;21030;-90
2022/02/11 12:02:01;;;;;;;11.83;6.50;;;;;;;8.10;75.68;99037.98;4199051;83;21094;-91
2022/02/11 12:08:03;;;;;;;10.93;6.35;;;;;;;8.07;76.04;99038.09;4184407;84;21141;-90
2022/02/11 12:14:05;;;;;;;10.90;6.40;;;;;;;8.08;75.37;99053.30;4210969;83;21103;-91
2022/02/11 12:20:08;;;;;;;13.05;6.35;;;;;;;7.97;72.30;99046.26;4205732;83;21549;-92
2022/02/11 12:32:43;;;;;;;8.15;3.75;;;;;;;7.83;72.81;99046.51;4251883;82;21183;-91
2022/02/11 12:38:50;;;;;;;14.20;4.20;;;;;;;7.80;72.95;99054.03;4243000;82;21052;-90
2022/02/11 12:44:52;;;;;;;8.23;4.17;;;;;;;7.80;72.93;99043.13;4239428;81;21032;-92
2022/02/11 12:50:55;;;;;;;7.97;4.10;;;;;;;7.79;71.44;99053.27;4192617;83;21606;-92
2022/02/11 12:57:06;;;;;;;7.28;3.87;;;;;;;7.80;71.03;99060.28;4355153;80;21012;-91
2022/02/11 13:03:11;;;;;;;10.30;4.90;;;;;;;7.74;70.84;99063.06;4395937;80;21096;-91
2022/02/11 13:09:18;;;;;;;8.33;4.67;;;;;;;7.69;70.90;99080.25;4378728;81;21058;-91
2022/02/11 13:15:27;;;;;;;9.75;4.75;;;;;;;7.61;71.55;99088.06;4374499;80;21546;-90
2022/02/11 13:21:25;;;;;;;9.40;4.70;;;;;;;7.50;72.39;99106.08;4352546;80;21093;-90
2022/02/11 13:27:49;;;;;;;8.50;4.65;;;;;;;7.32;73.17;99121.16;4346724;81;21030;-92
2022/02/11 13:34:11;;;;;;;8.28;4.33;;;;;;;7.22;73.63;99136.08;4397534;80;21050;-91
2022/02/11 13:40:24;;;;;;;11.38;5.62;;;;;;;7.09;74.68;99128.34;4328143;81;21561;-90
2022/02/11 13:46:34;;;;;;;10.53;5.90;;;;;;;6.94;75.35;99139.99;4317266;80;21025;-91
2022/02/11 13:53:06;;;;;;;10.75;5.65;;;;;;;6.82;75.91;99148.98;4308479;80;21020;-91
2022/02/11 13:59:23;;;;;;;16.48;8.10;;;;;;;6.74;76.66;99160.00;4316232;79;1865833;-93
2022/02/11 14:05:24;;;;;;;13.60;7.67;;;;;;;6.54;77.11;99191.70;4377094;80;21074;-89
2022/02/11 14:11:28;;;;;;;8.95;6.40;;;;;;;6.34;78.56;99204.29;4343796;80;21053;-90
2022/02/11 14:17:34;;;;;;;14.63;9.00;;;;;;;6.12;78.61;99214.85;4368594;80;21071;-91
2022/02/11 14:23:45;;;;;;;;;;;;;;;5.94;80.09;99237.38;4360799;80;21042;-91
2022/02/11 14:29:53;;;;;;;11.40;6.42;;;;;;;5.68;81.01;99270.81;4321403;80;20229;-91
2022/02/11 14:35:56;;;;;;;9.27;5.40;;;;;;;5.26;81.84;99300.50;4351000;80;21038;-91
2022/02/11 14:42:05;;;;;;;13.50;7.17;;;;;;;4.84;82.69;99311.92;4354133;80;21289;-92
2022/02/11 14:48:10;;;;;;;16.42;9.65;;;;;;;4.70;83.59;99336.34;4245664;80;20998;-92
2022/02/11 14:54:12;;;;;;;11.83;7.35;;;;;;;4.55;83.27;99366.18;4373461;80;21542;-91
2022/02/11 15:00:14;;;;;;;11.05;6.30;;;;;;;4.43;85.22;99401.30;4330764;80;21099;-91
2022/02/11 15:06:17;;;;;;;8.43;4.72;;;;;;;4.20;85.38;99424.88;4330426;80;21065;-90
2022/02/11 15:12:19;;;;;;;9.83;5.37;;;;;;;3.87;84.78;99439.52;4403711;80;21031;-91
2022/02/11 15:18:21;;;;;;;9.73;5.37;;;;;;;3.67;85.15;99475.91;4390945;80;21567;-91
2022/02/11 15:24:26;;;;;;;7.92;5.35;;;;;;;3.53;85.03;99505.84;4372840;80;21011;-92
2022/02/11 15:30:27;;;;;;;9.05;5.08;;;;;;;3.41;85.00;99535.45;4372438;80;21058;-92
2022/02/11 15:36:29;;;;;;;9.88;4.87;;;;;;;3.27;84.96;99552.36;4373544;80;21036;-90
2022/02/11 15:42:31;;;;;;;7.85;4.40;;;;;;;3.15;85.21;99577.29;4382424;80;21054;-91
2022/02/11 15:48:34;;;;;;;7.83;4.83;;;;;;;3.04;85.08;99587.33;4386827;80;21086;-92
2022/02/11 15:54:36;;;;;;;7.55;4.50;;;;;;;2.95;85.02;99597.31;4371112;80;21565;-89
2022/02/11 16:00:39;;;;;;;9.03;4.78;;;;;;;2.91;85.08;99609.30;4380341;80;21682;-92
2022/02/11 16:06:42;;;;;;;8.73;4.90;;;;;;;2.84;85.25;99629.78;4355065;80;20953;-91
2022/02/11 16:12:43;;;;;;;9.93;4.83;;;;;;;2.82;85.12;99649.55;4362858;80;21058;-89
2022/02/11 16:18:45;;;;;;;11.53;5.25;;;;;;;2.79;85.11;99665.05;4382048;80;21070;-89
2022/02/11 16:24:47;;;;;;;12.05;6.60;;;;;;;2.77;85.04;99680.80;4372298;80;21024;-91
2022/02/11 16:30:49;;;;;;;14.68;7.58;;;;;;;2.75;85.24;99705.98;4324072;80;21047;-90
2022/02/11 16:36:51;;;;;;;27.13;10.63;;;;;;;2.79;85.41;99716.42;4381899;80;210188;-91
2022/02/11 16:42:53;;;;;;;18.10;8.90;;;;;;;2.79;85.50;99720.48;4402404;80;21109;-90
2022/02/11 16:48:55;;;;;;;17.27;9.50;;;;;;;2.80;85.77;99732.91;4388946;80;21058;-90
2022/02/11 16:54:56;;;;;;;13.20;7.83;;;;;;;2.78;85.77;99733.22;4361141;80;21101;-90
2022/02/11 17:00:58;;;;;;;15.20;7.55;;;;;;;2.76;85.74;99736.77;4395767;80;21005;-91
2022/02/11 17:07:02;;;;;;;16.25;8.43;;;;;;;2.74;85.83;99743.59;4401176;80;21064;-92
2022/02/11 17:13:05;;;;;;;16.97;7.22;;;;;;;2.68;85.73;99753.71;4362088;80;21037;-91
2022/02/11 17:19:07;;;;;;;18.92;8.58;;;;;;;2.65;85.74;99759.73;4399120;80;21061;-91
2022/02/11 17:25:10;;;;;;;14.75;7.92;;;;;;;2.64;85.91;99762.20;4396668;80;21014;-90
2022/02/11 17:31:12;;;;;;;15.70;8.05;;;;;;;2.64;85.91;99766.25;4372967;79;21006;-91
2022/02/11 17:37:14;;;;;;;15.23;8.65;;;;;;;2.62;85.79;99779.27;4357848;80;20983;-91
2022/02/11 17:43:15;;;;;;;15.93;8.13;;;;;;;2.62;85.78;99783.31;4381731;80;21025;-90
2022/02/11 17:49:18;;;;;;;17.17;8.13;;;;;;;2.63;86.12;99786.83;4261182;80;9999918;-92
2022/02/11 17:55:20;;;;;;;17.15;9.80;;;;;;;2.58;85.95;99795.85;4361450;80;21359;-90
2022/02/11 18:01:25;;;;;;;17.50;8.40;;;;;;;2.56;85.96;99806.70;4359931;79;21057;-91
2022/02/11 18:07:30;;;;;;;16.62;8.40;;;;;;;2.55;85.90;99800.48;4369466;80;21022;-91
2022/02/11 18:13:32;;;;;;;12.37;7.22;;;;;;;2.54;86.03;99803.48;4365732;79;21066;-92
2022/02/11 18:19:34;;;;;;;16.75;7.45;;;;;;;2.52;86.09;99797.03;4361327;80;21011;-90
2022/02/11 18:25:36;;;;;;;18.52;9.55;;;;;;;2.49;85.74;99815.78;4369108;80;22069;-91
2022/02/11 18:31:42;;;;;;;18.02;10.00;;;;;;;2.44;85.76;99823.45;4364548;80;21069;-90
2022/02/11 18:37:44;;;;;;;15.67;9.17;;;;;;;2.41;85.63;99831.34;4407438;78;21560;-91
2022/02/11 18:43:46;;;;;;;20.35;10.18;;;;;;;2.38;85.67;99840.84;4414099;80;21053;-91
2022/02/11 18:49:47;;;;;;;18.87;10.65;;;;;;;2.35;85.73;99844.14;4371301;80;21890;-91
2022/02/11 18:55:52;;;;;;;23.55;12.05;;;;;;;2.31;85.85;99859.91;4368793;80;21771;-90
2022/02/11 19:01:53;;;;;;;22.35;11.22;;;;;;;2.27;85.90;99865.67;4331434;80;21053;-90
2022/02/11 19:07:56;;;;;;;30.40;13.65;;;;;;;2.25;85.97;99877.32;4362410;80;21097;-91
2022/02/11 19:13:58;;;;;;;23.90;12.28;;;;;;;2.20;85.88;99898.48;4392339;79;21494;-91
2022/02/11 19:19:59;;;;;;;23.62;12.35;;;;;;;2.11;85.89;99903.52;4410665;80;21644;-90
2022/02/11 19:26:01;;;;;;;23.75;12.43;;;;;;;2.04;85.78;99910.65;4351375;80;20991;-90
2022/02/11 19:32:03;;;;;;;21.48;12.33;;;;;;;1.93;85.89;99918.67;4363795;80;21034;-90
2022/02/11 19:38:06;;;;;;;27.58;14.38;;;;;;;1.79;85.82;99915.13;4368211;79;21065;-90
2022/02/11 19:44:07;;;;;;;26.12;13.68;;;;;;;1.64;85.95;99914.81;4366937;80;21010;-90
2022/02/11 19:50:10;;;;;;;25.88;14.65;;;;;;;1.53;86.23;99928.78;4401338;80;21625;-90
2022/02/11 19:56:13;;;;;;;26.57;14.53;;;;;;;1.51;86.52;99933.66;4363017;80;21066;-91
2022/02/11 20:02:16;;;;;;;31.93;16.25;;;;;;;1.53;86.58;99928.78;4399336;80;21053;-90
2022/02/11 20:08:17;;;;;;;31.30;17.50;;;;;;;1.55;86.79;99935.47;4392776;80;21097;-90
2022/02/11 20:14:19;;;;;;;34.27;17.82;;;;;;;1.60;86.77;99950.78;4399997;78;21033;-90
2022/02/11 20:20:21;;;;;;;35.75;18.27;;;;;;;1.64;86.90;99958.56;4414830;78;21021;-91
2022/02/11 20:26:23;;;;;;;33.55;17.20;;;;;;;1.67;87.03;99955.28;4408707;78;21070;-91
2022/02/11 20:32:24;;;;;;;35.13;16.80;;;;;;;1.68;87.08;99957.44;4361144;79;21039;-91
2022/02/11 20:38:26;;;;;;;35.08;15.35;;;;;;;1.69;86.94;99969.30;4359589;80;21370;-90
2022/02/11 20:44:27;;;;;;;31.17;15.15;;;;;;;1.66;87.00;99972.55;4390877;80;21081;-90
2022/02/11 20:50:32;;;;;;;29.15;15.55;;;;;;;1.68;86.95;99979.81;4365287;80;21097;-90
2022/02/11 20:56:34;;;;;;;33.23;17.12;;;;;;;1.70;86.96;99991.13;4378419;80;21022;-91
2022/02/11 21:02:36;;;;;;;36.10;16.85;;;;;;;1.72;86.96;100009.20;4394498;80;21029;-90
2022/02/11 21:08:37;;;;;;;32.08;17.37;;;;;;;1.77;87.64;100005.05;4394376;80;21037;-90
2022/02/11 21:14:40;;;;;;;31.85;16.73;;;;;;;1.71;87.19;100018.94;4385763;80;21034;-91
2022/02/11 21:20:42;;;;;;;29.50;14.67;;;;;;;1.67;87.11;100020.59;4397776;80;21005;-90
2022/02/11 21:26:43;;;;;;;33.00;14.83;;;;;;;1.56;87.09;100014.01;4369625;80;21067;-90
2022/02/11 21:32:46;;;;;;;30.48;15.50;;;;;;;1.48;87.22;100023.29;4407531;80;21105;-90
2022/02/11 21:38:48;;;;;;;41.65;17.77;;;;;;;1.39;87.23;100032.56;4418395;80;21491;-90
2022/02/11 21:44:50;;;;;;;42.53;19.10;;;;;;;1.34;87.36;100033.19;4397295;78;21017;-90
2022/02/11 21:50:52;;;;;;;37.73;19.32;;;;;;;1.28;87.50;100041.91;4399080;80;21060;-89
2022/02/11 21:56:53;;;;;;;42.48;18.87;;;;;;;1.20;87.44;100053.86;4390354;79;21073;-89
2022/02/11 22:02:56;;;;;;;36.38;16.37;;;;;;;1.21;87.86;100066.25;4412568;79;21516;-90
2022/02/11 22:08:58;;;;;;;39.58;19.17;;;;;;;1.29;88.00;100079.92;4396060;80;21037;-90
2022/02/11 22:15:00;;;;;;;41.98;20.85;;;;;;;1.37;88.40;100079.28;4394835;80;21025;-90
2022/02/11 22:21:02;;;;;;;42.10;19.67;;;;;;;1.44;88.41;100082.42;4378456;80;21076;-91
2022/02/11 22:27:03;;;;;;;36.98;18.23;;;;;;;1.48;88.67;100091.56;4391536;80;21037;-89
2022/02/11 22:33:05;;;;;;;32.65;18.48;;;;;;;1.54;88.91;100111.98;4395193;80;21506;-90
2022/02/11 22:39:08;;;;;;;34.60;18.40;;;;;;;1.56;89.12;100113.05;4399884;79;21362;-90
2022/02/11 22:45:12;;;;;;;39.95;20.40;;;;;;;1.56;89.08;100123.84;4405202;78;21101;-89
2022/02/11 22:57:32;;;;;;;33.25;16.70;;;;;;;1.55;89.44;100135.17;4386008;80;21066;-90
2022/02/11 23:03:34;;;;;;;37.88;19.45;;;;;;;1.55;89.55;100146.54;4385472;80;21048;-91
2022/02/11 23:09:36;;;;;;;30.40;14.98;;;;;;;1.56;89.88;100157.58;4392361;80;21887;-91
2022/02/11 23:15:38;;;;;;;38.75;16.90;;;;;;;1.58;89.70;100175.08;4387527;80;21050;-90
2022/02/11 23:21:41;;;;;;;31.40;15.32;;;;;;;1.56;89.72;100171.89;4388309;80;21562;-90
2022/02/11 23:27:43;;;;;;;28.98;14.33;;;;;;;1.57;89.66;100176.19;4390870;80;21066;-90
2022/02/11 23:33:46;;;;;;;23.65;13.03;;;;;;;1.60;89.40;100174.79;4398197;80;21064;-90
2022/02/11 23:39:47;;;;;;;22.95;12.73;;;;;;;1.61;89.52;100174.50;4395058;80;21033;-90
2022/02/11 23:45:49;;;;;;;27.25;14.25;;;;;;;1.66;89.42;100183.65;4382913;80;21156;-91
2022/02/11 23:51:50;;;;;;;37.88;16.45;;;;;;;1.68;89.53;100196.32;4377409;80;22232;-91
2022/02/11 23:57:52;;;;;;;30.20;15.85;;;;;;;1.67;89.52;100191.99;4390441;79;21317;-89
